Time;durP1;ratioP1;P1;durP2;ratioP2;P2;SDS_P1;SDS_P2;PMS_P1;PMS_P2;Temp;Humidity;BMP_temperature;BMP_pressure;BME280_temperature;BME280_humidity;BME280_pressure;Samples;Min_cycle;Max_cycle;Signal;HPM_P1;HPM_P2
2022/12/10 00:01:30;;;;;;;29.65;14.30;;;;;;;;;;1819437;78;20905;-69
2022/12/10 00:03:57;;;;;;;33.35;18.98;;;;;;;;;;1819408;79;21718;-70
2022/12/10 00:06:25;;;;;;;33.67;18.70;;;;;;;;;;1819222;78;21549;-69
2022/12/10 00:08:51;;;;;;;27.90;16.40;;;;;;;;;;1819353;79;27842;-71
2022/12/10 00:11:18;;;;;;;27.98;15.05;;;;;;;;;;1819141;78;20881;-71
2022/12/10 00:13:45;;;;;;;34.10;19.45;;;;;;;;;;1819140;78;20861;-71
2022/12/10 00:16:14;;;;;;;38.92;18.70;;;;;;;;;;1819515;79;20997;-70
2022/12/10 00:18:40;;;;;;;23.83;13.50;;;;;;;;;;1819227;78;28355;-71
2022/12/10 00:21:08;;;;;;;35.52;19.20;;;;;;;;;;1819196;79;20881;-70
2022/12/10 00:23:35;;;;;;;39.25;20.97;;;;;;;;;;1819308;79;28496;-70
2022/12/10 00:26:05;;;;;;;34.65;18.48;;;;;;;;;;1819193;79;20908;-70
2022/12/10 00:28:32;;;;;;;27.87;15.35;;;;;;;;;;1818921;79;21003;-69
2022/12/10 00:31:06;;;;;;;27.17;14.85;;;;;;;;;;1819211;78;20873;-71
2022/12/10 00:33:32;;;;;;;34.75;19.67;;;;;;;;;;1819312;78;20846;-70
2022/12/10 00:36:09;;;;;;;28.23;15.68;;;;;;;;;;1819153;79;20912;-68
2022/12/10 00:38:36;;;;;;;32.98;18.75;;;;;;;;;;1785671;78;20929;-70
2022/12/10 00:41:03;;;;;;;32.48;17.40;;;;;;;;;;1819299;79;21640;-68
2022/12/10 00:43:29;;;;;;;32.40;18.07;;;;;;;;;;1819309;78;20967;-71
2022/12/10 00:45:56;;;;;;;25.57;15.72;;;;;;;;;;1819449;79;20853;-69
2022/12/10 00:48:23;;;;;;;29.05;16.82;;;;;;;;;;1819188;79;20842;-68
2022/12/10 00:51:05;;;;;;;23.70;14.05;;;;;;;;;;1819253;79;20980;-69
2022/12/10 00:53:33;;;;;;;23.55;13.30;;;;;;;;;;1819390;79;21182;-68
2022/12/10 00:55:59;;;;;;;30.20;16.90;;;;;;;;;;1819161;79;21097;-69
2022/12/10 00:58:29;;;;;;;30.92;17.48;;;;;;;;;;1819377;79;20863;-69
2022/12/10 01:01:18;;;;;;;22.25;12.23;;;;;;;;;;1819379;79;20908;-69
2022/12/10 01:03:45;;;;;;;;;;;;;;;;;;1821966;79;20929;-68
2022/12/10 01:06:15;;;;;;;15.85;10.15;;;;;;;;;;1819370;79;21721;-69
2022/12/10 01:08:43;;;;;;;28.40;16.02;;;;;;;;;;1819108;79;20957;-70
2022/12/10 01:11:11;;;;;;;27.05;16.00;;;;;;;;;;1819305;78;21123;-69
2022/12/10 01:13:38;;;;;;;27.27;15.55;;;;;;;;;;1819731;78;20937;-69
2022/12/10 01:16:06;;;;;;;26.25;14.80;;;;;;;;;;1819397;79;20861;-69
2022/12/10 01:18:33;;;;;;;24.72;14.73;;;;;;;;;;1819672;78;20993;-69
2022/12/10 01:21:07;;;;;;;26.70;16.20;;;;;;;;;;1819181;78;20889;-69
2022/12/10 01:23:36;;;;;;;23.62;14.53;;;;;;;;;;1819567;78;21485;-69
2022/12/10 01:26:04;;;;;;;19.77;11.00;;;;;;;;;;1819504;78;20845;-70
2022/12/10 01:28:31;;;;;;;24.90;13.50;;;;;;;;;;1819674;78;20999;-69
2022/12/10 01:31:09;;;;;;;25.70;13.25;;;;;;;;;;1819522;79;21004;-69
2022/12/10 01:33:38;;;;;;;25.92;15.00;;;;;;;;;;1819225;79;20937;-69
2022/12/10 01:36:06;;;;;;;21.65;13.05;;;;;;;;;;1819181;79;21066;-68
2022/12/10 01:38:32;;;;;;;21.65;12.65;;;;;;;;;;1819650;78;20877;-69
2022/12/10 01:41:00;;;;;;;23.22;13.25;;;;;;;;;;1819286;78;20904;-69
2022/12/10 01:43:32;;;;;;;17.82;12.03;;;;;;;;;;1819272;79;21056;-69
2022/12/10 01:45:58;;;;;;;17.82;11.18;;;;;;;;;;1814417;79;20866;-69
2022/12/10 01:48:25;;;;;;;22.15;12.50;;;;;;;;;;1819117;79;20869;-70
2022/12/10 01:50:51;;;;;;;18.70;12.40;;;;;;;;;;1819186;79;20983;-69
2022/12/10 01:53:17;;;;;;;18.25;12.80;;;;;;;;;;1819358;79;21545;-69
2022/12/10 01:55:48;;;;;;;13.53;9.95;;;;;;;;;;1819315;79;21691;-67
2022/12/10 01:58:16;;;;;;;18.67;12.07;;;;;;;;;;1819318;78;20939;-70
2022/12/10 02:00:53;;;;;;;19.90;12.15;;;;;;;;;;1819466;79;20949;-69
2022/12/10 02:03:23;;;;;;;17.62;12.23;;;;;;;;;;1819324;79;20873;-70
2022/12/10 02:06:01;;;;;;;17.82;12.47;;;;;;;;;;1818579;79;21388;-70
2022/12/10 02:08:33;;;;;;;16.32;10.72;;;;;;;;;;1813303;79;20987;-68
2022/12/10 02:11:13;;;;;;;20.20;11.83;;;;;;;;;;1818549;79;20936;-65
2022/12/10 02:13:42;;;;;;;11.57;8.30;;;;;;;;;;1819280;79;21045;-70
2022/12/10 02:16:13;;;;;;;17.70;10.08;;;;;;;;;;1819364;78;21086;-69
2022/12/10 02:18:43;;;;;;;19.85;12.93;;;;;;;;;;1819257;79;20932;-70
2022/12/10 02:21:17;;;;;;;18.87;11.75;;;;;;;;;;1817557;79;21222;-70
2022/12/10 02:23:47;;;;;;;19.20;12.65;;;;;;;;;;1785200;78;20869;-69
2022/12/10 02:26:36;;;;;;;16.15;12.07;;;;;;;;;;1818311;79;20865;-70
2022/12/10 02:29:16;;;;;;;18.50;12.82;;;;;;;;;;1819240;79;21078;-70
2022/12/10 02:31:48;;;;;;;21.48;12.63;;;;;;;;;;1819230;78;21000;-70
2022/12/10 02:34:15;;;;;;;19.67;11.88;;;;;;;;;;1819566;78;21526;-70
2022/12/10 02:36:43;;;;;;;15.08;9.78;;;;;;;;;;1819233;78;20912;-69
2022/12/10 02:39:11;;;;;;;23.65;14.53;;;;;;;;;;1819396;79;20912;-70
2022/12/10 02:41:43;;;;;;;17.07;11.10;;;;;;;;;;1819147;78;21418;-69
2022/12/10 02:44:11;;;;;;;22.90;14.60;;;;;;;;;;1819598;78;21467;-69
2022/12/10 02:46:38;;;;;;;21.75;14.33;;;;;;;;;;1819297;79;21013;-70
2022/12/10 02:49:06;;;;;;;16.93;11.93;;;;;;;;;;1812399;78;20908;-71
2022/12/10 02:51:33;;;;;;;13.28;10.13;;;;;;;;;;1819221;79;20873;-70
2022/12/10 02:54:03;;;;;;;22.42;13.85;;;;;;;;;;1819353;79;20953;-69
2022/12/10 02:56:37;;;;;;;20.92;13.15;;;;;;;;;;1819053;79;20936;-69
2022/12/10 02:59:07;;;;;;;17.02;11.68;;;;;;;;;;1819343;79;21384;-70
2022/12/10 03:02:07;;;;;;;19.90;13.20;;;;;;;;;;1819197;79;20838;-70
2022/12/10 03:04:38;;;;;;;19.92;12.70;;;;;;;;;;1819250;79;20944;-70
2022/12/10 03:07:12;;;;;;;20.55;13.58;;;;;;;;;;1819169;79;21078;-70
2022/12/10 03:09:42;;;;;;;17.07;12.23;;;;;;;;;;1819219;78;20960;-71
2022/12/10 03:12:18;;;;;;;18.98;11.20;;;;;;;;;;1819308;78;21179;-68
2022/12/10 03:14:44;;;;;;;15.60;10.53;;;;;;;;;;1818979;79;21376;-70
2022/12/10 03:17:11;;;;;;;18.50;11.38;;;;;;;;;;1819180;79;20912;-70
2022/12/10 03:19:41;;;;;;;16.07;11.43;;;;;;;;;;1819253;79;20940;-70
2022/12/10 03:22:08;;;;;;;20.17;13.32;;;;;;;;;;1818322;79;20826;-69
2022/12/10 03:24:35;;;;;;;15.88;10.10;;;;;;;;;;1819124;79;21115;-70
2022/12/10 03:27:04;;;;;;;21.05;15.13;;;;;;;;;;1819180;79;21031;-69
2022/12/10 03:29:35;;;;;;;;;;;;;;;;;;1821968;78;21310;-69
2022/12/10 03:32:03;;;;;;;12.58;8.93;;;;;;;;;;1819081;79;20126;-70
2022/12/10 03:34:29;;;;;;;21.45;15.23;;;;;;;;;;1785678;79;21628;-70
2022/12/10 03:36:57;;;;;;;20.65;10.58;;;;;;;;;;1819419;79;21954;-70
2022/12/10 03:39:23;;;;;;;19.32;11.40;;;;;;;;;;1819054;79;20873;-68
2022/12/10 03:41:50;;;;;;;20.95;12.73;;;;;;;;;;1819255;79;20830;-70
2022/12/10 03:44:29;;;;;;;18.15;12.50;;;;;;;;;;1819361;78;21514;-70
2022/12/10 03:46:55;;;;;;;18.75;12.00;;;;;;;;;;1819208;79;21541;-69
2022/12/10 03:49:21;;;;;;;18.32;12.40;;;;;;;;;;1819213;78;22069;-70
2022/12/10 03:51:48;;;;;;;14.13;9.85;;;;;;;;;;1819083;78;20837;-69
2022/12/10 03:54:14;;;;;;;13.40;9.28;;;;;;;;;;1819237;79;21004;-70
2022/12/10 03:56:41;;;;;;;15.23;10.63;;;;;;;;;;1819258;79;21099;-70
2022/12/10 03:59:07;;;;;;;13.90;9.78;;;;;;;;;;1819250;78;20861;-70
2022/12/10 04:01:34;;;;;;;16.77;11.40;;;;;;;;;;1819183;79;21168;-70
2022/12/10 04:04:00;;;;;;;17.15;11.43;;;;;;;;;;1819313;79;21399;-69
2022/12/10 04:06:27;;;;;;;20.40;10.28;;;;;;;;;;1819186;78;21044;-69
2022/12/10 04:08:53;;;;;;;17.12;11.93;;;;;;;;;;1819235;79;20959;-69
2022/12/10 04:11:19;;;;;;;16.90;12.58;;;;;;;;;;1819019;79;20814;-70
2022/12/10 04:16:32;;;;;;;16.60;11.30;;;;;;;;;;1819122;78;20869;-71
2022/12/10 04:19:06;;;;;;;18.25;10.80;;;;;;;;;;1819144;79;20873;-70
2022/12/10 04:27:09;;;;;;;14.35;10.30;;;;;;;;;;1819041;79;21228;-70
2022/12/10 04:29:36;;;;;;;16.90;11.55;;;;;;;;;;1819196;79;20857;-70
2022/12/10 04:32:02;;;;;;;18.98;13.03;;;;;;;;;;1818984;79;20987;-70
2022/12/10 04:34:29;;;;;;;18.32;10.88;;;;;;;;;;1819128;79;21070;-69
2022/12/10 04:36:57;;;;;;;20.55;14.87;;;;;;;;;;1819057;79;20850;-71
2022/12/10 04:39:26;;;;;;;21.10;14.53;;;;;;;;;;1819163;79;21783;-69
2022/12/10 04:41:53;;;;;;;17.52;12.10;;;;;;;;;;1819071;79;21396;-71
2022/12/10 04:44:20;;;;;;;12.95;9.50;;;;;;;;;;1819278;79;20912;-70
2022/12/10 04:46:46;;;;;;;18.75;12.80;;;;;;;;;;1819183;79;20897;-71
2022/12/10 04:49:13;;;;;;;18.05;12.13;;;;;;;;;;1819378;79;20980;-69
2022/12/10 04:51:39;;;;;;;18.12;12.40;;;;;;;;;;1819150;78;21170;-70
2022/12/10 04:54:05;;;;;;;19.05;14.93;;;;;;;;;;1819000;79;20924;-69
2022/12/10 04:56:32;;;;;;;18.40;11.95;;;;;;;;;;1819337;78;20908;-69
2022/12/10 04:58:59;;;;;;;18.82;12.93;;;;;;;;;;1819059;79;20969;-71
2022/12/10 05:01:26;;;;;;;18.02;12.47;;;;;;;;;;1819091;79;21712;-70
2022/12/10 05:03:53;;;;;;;15.83;11.63;;;;;;;;;;1819120;78;21007;-70
2022/12/10 05:06:20;;;;;;;15.18;10.10;;;;;;;;;;1819091;78;20865;-70
2022/12/10 05:08:47;;;;;;;22.48;15.15;;;;;;;;;;1819168;79;20877;-69
2022/12/10 05:11:16;;;;;;;18.37;13.80;;;;;;;;;;1819273;79;21467;-68
2022/12/10 05:13:44;;;;;;;16.07;10.85;;;;;;;;;;1819115;78;21003;-70
2022/12/10 05:16:14;;;;;;;20.95;12.60;;;;;;;;;;1819297;79;25015;-69
2022/12/10 05:18:41;;;;;;;21.40;13.90;;;;;;;;;;1819462;78;20952;-70
2022/12/10 05:21:13;;;;;;;17.62;12.25;;;;;;;;;;1819398;78;21572;-70
2022/12/10 05:23:41;;;;;;;12.78;9.30;;;;;;;;;;1819384;78;21008;-70
2022/12/10 05:26:11;;;;;;;15.32;11.03;;;;;;;;;;1819303;79;21410;-70
2022/12/10 05:28:40;;;;;;;14.75;9.58;;;;;;;;;;1819429;79;22074;-71
2022/12/10 05:31:10;;;;;;;16.90;11.55;;;;;;;;;;1819212;79;21064;-71
2022/12/10 05:33:37;;;;;;;22.85;13.88;;;;;;;;;;1816327;79;20952;-70
2022/12/10 05:36:05;;;;;;;17.73;11.78;;;;;;;;;;1819268;78;20959;-69
2022/12/10 05:38:32;;;;;;;19.37;12.05;;;;;;;;;;1819498;78;20949;-70
2022/12/10 05:41:03;;;;;;;18.12;12.65;;;;;;;;;;1819176;79;21252;-69
2022/12/10 05:43:30;;;;;;;18.67;12.65;;;;;;;;;;1819503;78;20916;-71
2022/12/10 05:46:01;;;;;;;16.05;10.82;;;;;;;;;;1819540;79;21434;-70
2022/12/10 05:48:28;;;;;;;15.23;11.08;;;;;;;;;;1818711;79;20869;-70
2022/12/10 05:50:54;;;;;;;18.23;11.55;;;;;;;;;;1819294;78;21407;-70
2022/12/10 05:53:20;;;;;;;10.68;8.63;;;;;;;;;;1819375;78;21151;-69
2022/12/10 05:55:46;;;;;;;14.87;11.18;;;;;;;;;;1819052;79;21047;-69
2022/12/10 05:58:14;;;;;;;13.15;9.53;;;;;;;;;;1819185;79;20873;-69
2022/12/10 06:00:41;;;;;;;16.80;13.43;;;;;;;;;;1819319;79;20888;-70
2022/12/10 06:03:07;;;;;;;14.10;9.73;;;;;;;;;;1819490;78;20964;-69
2022/12/10 06:05:40;;;;;;;14.03;11.53;;;;;;;;;;1819269;79;21147;-70
2022/12/10 06:08:07;;;;;;;15.50;9.98;;;;;;;;;;1819235;78;20873;-70
2022/12/10 06:10:35;;;;;;;19.23;13.88;;;;;;;;;;1819169;79;20991;-71
2022/12/10 06:13:02;;;;;;;16.15;12.68;;;;;;;;;;1819680;78;20948;-71
2022/12/10 06:15:28;;;;;;;15.88;11.00;;;;;;;;;;1819178;78;21031;-70
2022/12/10 06:17:56;;;;;;;19.98;14.68;;;;;;;;;;1819262;79;21146;-70
2022/12/10 06:20:23;;;;;;;13.65;10.98;;;;;;;;;;1819245;78;21469;-70
2022/12/10 06:22:50;;;;;;;22.10;12.33;;;;;;;;;;1819276;79;20893;-71
2022/12/10 06:25:16;;;;;;;17.75;10.63;;;;;;;;;;1819282;79;20945;-71
2022/12/10 06:27:43;;;;;;;20.70;13.50;;;;;;;;;;1819294;79;20980;-70
2022/12/10 06:30:11;;;;;;;20.02;11.10;;;;;;;;;;1819074;78;21163;-71
2022/12/10 06:32:39;;;;;;;140.00;68.30;;;;;;;;;;1819426;79;20912;-70
2022/12/10 06:35:07;;;;;;;31.12;20.32;;;;;;;;;;1819247;79;20869;-71
2022/12/10 06:37:33;;;;;;;120.08;47.78;;;;;;;;;;1819660;78;20948;-70
2022/12/10 06:40:00;;;;;;;26.70;18.62;;;;;;;;;;1819569;78;21510;-71
2022/12/10 06:42:26;;;;;;;154.95;74.87;;;;;;;;;;1819269;78;21154;-70
2022/12/10 06:44:54;;;;;;;116.28;63.38;;;;;;;;;;1819129;78;20999;-71
2022/12/10 06:47:20;;;;;;;73.22;44.30;;;;;;;;;;1819276;79;20880;-70
2022/12/10 06:49:47;;;;;;;24.23;15.00;;;;;;;;;;1819237;79;20842;-70
2022/12/10 06:52:14;;;;;;;29.35;20.40;;;;;;;;;;1819160;79;20948;-71
2022/12/10 06:54:40;;;;;;;48.02;29.20;;;;;;;;;;1819255;79;21154;-71
2022/12/10 06:57:06;;;;;;;55.75;35.38;;;;;;;;;;1819065;79;20973;-71
2022/12/10 06:59:34;;;;;;;39.85;27.67;;;;;;;;;;1819294;78;20877;-71
2022/12/10 07:02:01;;;;;;;29.67;21.93;;;;;;;;;;1819046;79;21424;-71
2022/12/10 07:04:28;;;;;;;26.47;17.23;;;;;;;;;;1819600;79;20925;-71
2022/12/10 07:06:55;;;;;;;29.40;19.27;;;;;;;;;;1819286;78;21043;-70
2022/12/10 07:09:21;;;;;;;19.48;13.48;;;;;;;;;;1819195;78;20912;-71
2022/12/10 07:11:48;;;;;;;27.10;13.62;;;;;;;;;;1819186;79;20881;-71
2022/12/10 07:14:15;;;;;;;23.12;13.40;;;;;;;;;;1819458;78;21474;-69
2022/12/10 07:16:41;;;;;;;30.00;18.45;;;;;;;;;;1819158;78;20964;-71
2022/12/10 07:19:09;;;;;;;20.80;13.60;;;;;;;;;;1819409;79;21142;-70
2022/12/10 07:21:36;;;;;;;34.60;17.00;;;;;;;;;;1819125;78;21059;-71
2022/12/10 07:24:05;;;;;;;25.27;15.38;;;;;;;;;;1819240;78;20880;-71
2022/12/10 07:26:34;;;;;;;29.50;18.42;;;;;;;;;;1819429;78;20912;-71
2022/12/10 07:29:03;;;;;;;28.75;17.45;;;;;;;;;;1819241;78;20872;-70
2022/12/10 07:31:29;;;;;;;25.68;15.68;;;;;;;;;;1819337;78;21125;-71
2022/12/10 07:33:57;;;;;;;18.40;11.88;;;;;;;;;;1819638;79;20900;-69
2022/12/10 07:36:24;;;;;;;17.90;12.73;;;;;;;;;;1819284;79;20900;-71
2022/12/10 07:38:51;;;;;;;24.98;15.15;;;;;;;;;;1819088;79;21049;-70
2022/12/10 07:41:17;;;;;;;32.55;25.62;;;;;;;;;;1819638;78;20968;-71
2022/12/10 07:43:44;;;;;;;31.48;19.25;;;;;;;;;;1819178;78;21157;-70
2022/12/10 07:46:25;;;;;;;32.30;18.62;;;;;;;;;;1819086;78;20873;-71
2022/12/10 07:48:51;;;;;;;32.93;22.10;;;;;;;;;;1819165;79;20877;-71
2022/12/10 07:51:20;;;;;;;33.67;22.05;;;;;;;;;;1819171;78;21007;-71
2022/12/10 07:53:48;;;;;;;21.02;14.68;;;;;;;;;;1819163;78;20944;-70
2022/12/10 07:56:14;;;;;;;32.48;21.52;;;;;;;;;;1819393;78;21803;-71
2022/12/10 07:58:42;;;;;;;18.42;12.63;;;;;;;;;;1819021;79;20967;-70
2022/12/10 08:01:09;;;;;;;29.70;17.77;;;;;;;;;;1819858;78;20877;-70
2022/12/10 08:03:36;;;;;;;35.63;25.35;;;;;;;;;;1820175;78;20873;-71
2022/12/10 08:06:11;;;;;;;33.83;25.68;;;;;;;;;;1819257;79;20877;-71
2022/12/10 08:08:38;;;;;;;31.10;20.77;;;;;;;;;;1818599;78;21399;-72
2022/12/10 08:11:05;;;;;;;58.10;36.63;;;;;;;;;;1818998;79;21403;-71
2022/12/10 08:13:32;;;;;;;24.85;17.10;;;;;;;;;;1819204;78;20878;-71
2022/12/10 08:16:06;;;;;;;28.65;17.92;;;;;;;;;;1819355;79;20912;-72
2022/12/10 08:18:32;;;;;;;34.63;24.12;;;;;;;;;;1819215;78;20829;-71
2022/12/10 08:21:07;;;;;;;43.55;31.65;;;;;;;;;;1819082;79;21093;-72
2022/12/10 08:23:34;;;;;;;44.93;30.35;;;;;;;;;;1819083;78;21011;-71
2022/12/10 08:26:06;;;;;;;32.15;23.25;;;;;;;;;;1818993;78;21388;-71
2022/12/10 08:28:34;;;;;;;27.07;19.48;;;;;;;;;;1819264;78;21348;-72
2022/12/10 08:31:01;;;;;;;34.98;23.73;;;;;;;;;;1819263;79;20829;-72
2022/12/10 08:33:27;;;;;;;33.13;19.32;;;;;;;;;;1819331;78;21112;-71
2022/12/10 08:35:59;;;;;;;35.08;21.68;;;;;;;;;;1819226;79;20940;-72
2022/12/10 08:38:26;;;;;;;44.27;27.30;;;;;;;;;;1819245;79;20869;-72
2022/12/10 08:40:53;;;;;;;19.47;14.23;;;;;;;;;;1819371;78;20842;-72
2022/12/10 08:43:20;;;;;;;116.10;60.85;;;;;;;;;;1819230;78;21561;-72
2022/12/10 08:45:46;;;;;;;67.80;41.48;;;;;;;;;;1819316;78;21903;-73
2022/12/10 08:48:14;;;;;;;61.40;37.88;;;;;;;;;;1818995;78;20996;-70
2022/12/10 08:50:40;;;;;;;38.45;23.77;;;;;;;;;;1819197;79;20912;-72
2022/12/10 08:53:07;;;;;;;50.33;28.73;;;;;;;;;;1819168;79;20916;-72
2022/12/10 08:55:39;;;;;;;30.65;19.67;;;;;;;;;;1819371;79;21445;-72
2022/12/10 08:58:06;;;;;;;53.20;34.65;;;;;;;;;;1819322;79;21100;-71
2022/12/10 09:00:32;;;;;;;89.75;56.28;;;;;;;;;;1785931;79;21548;-72
2022/12/10 09:02:59;;;;;;;66.02;40.67;;;;;;;;;;1819426;79;21445;-72
2022/12/10 09:05:26;;;;;;;23.98;13.20;;;;;;;;;;1819256;78;20921;-73
2022/12/10 09:07:52;;;;;;;41.63;27.32;;;;;;;;;;1819563;79;21402;-72
2022/12/10 09:10:18;;;;;;;45.40;28.15;;;;;;;;;;1819534;78;21181;-73
2022/12/10 09:12:45;;;;;;;52.65;35.05;;;;;;;;;;1819217;79;20940;-72
2022/12/10 09:15:11;;;;;;;40.98;27.45;;;;;;;;;;1819320;79;21546;-73
2022/12/10 09:17:38;;;;;;;32.80;20.52;;;;;;;;;;1819492;78;21403;-72
2022/12/10 09:20:06;;;;;;;55.12;34.00;;;;;;;;;;1819374;79;20877;-72
2022/12/10 09:22:32;;;;;;;37.35;23.38;;;;;;;;;;1819573;78;21132;-74
2022/12/10 09:24:59;;;;;;;55.95;37.83;;;;;;;;;;1819399;79;20908;-72
2022/12/10 09:27:25;;;;;;;118.28;77.67;;;;;;;;;;1819326;78;20997;-72
2022/12/10 09:29:52;;;;;;;78.05;47.50;;;;;;;;;;1819535;79;21439;-72
2022/12/10 09:32:18;;;;;;;94.45;55.75;;;;;;;;;;1819351;78;21458;-72
2022/12/10 09:34:45;;;;;;;81.97;48.58;;;;;;;;;;1785978;79;21346;-71
2022/12/10 09:37:11;;;;;;;40.03;26.48;;;;;;;;;;1819435;78;21014;-72
2022/12/10 09:39:38;;;;;;;43.83;24.55;;;;;;;;;;1819195;79;20900;-72
2022/12/10 09:42:12;;;;;;;102.20;55.15;;;;;;;;;;1819528;79;20849;-73
2022/12/10 09:44:54;;;;;;;131.60;72.10;;;;;;;;;;1819417;78;20928;-71
2022/12/10 09:47:24;;;;;;;48.05;31.62;;;;;;;;;;1819441;78;21071;-73
2022/12/10 09:49:54;;;;;;;46.13;25.00;;;;;;;;;;1819241;79;20900;-72
2022/12/10 09:52:23;;;;;;;56.55;35.88;;;;;;;;;;1819107;79;21347;-74
2022/12/10 09:54:55;;;;;;;44.93;28.98;;;;;;;;;;1819441;79;20980;-73
2022/12/10 09:57:33;;;;;;;76.62;40.35;;;;;;;;;;1819312;79;20992;-71
2022/12/10 10:00:03;;;;;;;194.57;89.77;;;;;;;;;;1819672;78;21129;-71
2022/12/10 10:02:32;;;;;;;69.70;29.57;;;;;;;;;;1817619;78;20845;-72
2022/12/10 10:05:10;;;;;;;75.22;45.52;;;;;;;;;;1819659;78;20865;-72
2022/12/10 10:07:40;;;;;;;93.55;41.50;;;;;;;;;;1819422;78;20923;-72
2022/12/10 10:10:26;;;;;;;103.10;52.08;;;;;;;;;;1819380;79;21462;-73
2022/12/10 10:12:55;;;;;;;148.65;80.85;;;;;;;;;;1818809;79;21110;-72
2022/12/10 10:15:26;;;;;;;113.65;61.73;;;;;;;;;;1819209;79;20837;-73
2022/12/10 10:17:54;;;;;;;114.75;53.08;;;;;;;;;;1815274;79;20881;-73
2022/12/10 10:20:20;;;;;;;165.43;92.53;;;;;;;;;;1819479;78;20865;-73
2022/12/10 10:22:47;;;;;;;69.53;35.05;;;;;;;;;;1819301;78;20979;-73
2022/12/10 10:25:16;;;;;;;139.30;80.00;;;;;;;;;;1819308;78;21996;-73
2022/12/10 10:27:42;;;;;;;95.20;55.83;;;;;;;;;;1818850;79;21482;-73
2022/12/10 10:30:17;;;;;;;137.03;80.05;;;;;;;;;;1819233;78;20879;-72
2022/12/10 10:32:50;;;;;;;62.40;39.10;;;;;;;;;;1818584;79;20968;-73
2022/12/10 10:35:29;;;;;;;45.17;26.60;;;;;;;;;;1819500;78;20873;-72
2022/12/10 10:37:58;;;;;;;113.57;60.95;;;;;;;;;;1819367;79;21970;-73
2022/12/10 10:40:33;;;;;;;65.85;38.25;;;;;;;;;;1819218;79;20896;-72
2022/12/10 10:42:59;;;;;;;55.05;31.57;;;;;;;;;;1819553;78;20814;-73
2022/12/10 10:45:37;;;;;;;92.92;54.30;;;;;;;;;;1819157;79;20920;-72
2022/12/10 10:48:17;;;;;;;51.83;30.77;;;;;;;;;;1819379;78;20873;-72
2022/12/10 10:50:53;;;;;;;67.15;40.43;;;;;;;;;;1819297;79;21141;-71
2022/12/10 10:53:25;;;;;;;70.47;44.53;;;;;;;;;;1819132;79;20973;-73
2022/12/10 10:55:54;;;;;;;53.33;36.50;;;;;;;;;;1819301;79;20870;-71
2022/12/10 10:58:20;;;;;;;62.62;42.30;;;;;;;;;;1819319;79;21533;-71
2022/12/10 11:00:55;;;;;;;30.52;21.02;;;;;;;;;;1819159;78;20948;-72
2022/12/10 11:03:21;;;;;;;44.30;30.60;;;;;;;;;;1819163;79;21131;-72
2022/12/10 11:05:48;;;;;;;41.45;28.80;;;;;;;;;;1819259;79;20956;-71
2022/12/10 11:08:18;;;;;;;123.28;75.17;;;;;;;;;;1785736;79;20913;-71
2022/12/10 11:11:00;;;;;;;63.48;39.70;;;;;;;;;;1819097;78;21030;-71
2022/12/10 11:13:28;;;;;;;41.15;27.75;;;;;;;;;;1809605;78;21006;-72
2022/12/10 11:16:01;;;;;;;83.85;55.73;;;;;;;;;;1819425;78;21076;-70
2022/12/10 11:18:39;;;;;;;74.35;47.25;;;;;;;;;;1819177;79;21506;-71
2022/12/10 11:21:16;;;;;;;45.47;30.17;;;;;;;;;;1819480;79;20979;-71
2022/12/10 11:23:46;;;;;;;60.48;31.25;;;;;;;;;;1814448;79;20912;-72
2022/12/10 11:26:45;;;;;;;50.58;29.20;;;;;;;;;;1819444;78;21422;-71
2022/12/10 11:29:40;;;;;;;95.20;47.55;;;;;;;;;;1819280;78;21103;-72
2022/12/10 11:32:28;;;;;;;45.80;30.02;;;;;;;;;;1819119;79;20877;-73
2022/12/10 11:34:59;;;;;;;97.22;55.67;;;;;;;;;;1819093;78;21570;-72
2022/12/10 11:37:32;;;;;;;41.42;27.50;;;;;;;;;;1813247;79;21019;-72
2022/12/10 11:40:22;;;;;;;95.83;53.33;;;;;;;;;;1817805;79;20983;-72
2022/12/10 11:43:01;;;;;;;26.42;17.60;;;;;;;;;;1819014;79;21103;-72
2022/12/10 11:45:32;;;;;;;48.75;30.75;;;;;;;;;;1819166;78;20901;-71
2022/12/10 11:48:12;;;;;;;35.05;22.30;;;;;;;;;;1819089;78;20912;-71
2022/12/10 11:50:45;;;;;;;29.98;20.60;;;;;;;;;;1819412;79;21498;-72
2022/12/10 11:53:31;;;;;;;54.98;36.03;;;;;;;;;;1819044;79;20904;-71
2022/12/10 11:56:23;;;;;;;36.58;20.40;;;;;;;;;;1819031;79;21089;-72
2022/12/10 11:59:05;;;;;;;52.83;33.23;;;;;;;;;;1703453;82;20989;-73
2022/12/10 12:01:36;;;;;;;61.18;39.85;;;;;;;;;;1703468;82;21531;-73
2022/12/10 12:04:15;;;;;;;65.57;41.20;;;;;;;;;;1703615;82;20946;-72
2022/12/10 12:06:57;;;;;;;56.85;36.90;;;;;;;;;;1703650;82;21037;-73
2022/12/10 12:09:43;;;;;;;52.65;29.32;;;;;;;;;;1703686;82;21879;-72
2022/12/10 12:12:13;;;;;;;44.23;29.55;;;;;;;;;;1703525;82;20858;-73
2022/12/10 12:14:49;;;;;;;39.85;25.85;;;;;;;;;;1703467;82;20902;-73
2022/12/10 12:17:25;;;;;;;38.90;25.15;;;;;;;;;;1703632;82;21838;-72
2022/12/10 12:19:57;;;;;;;45.08;29.02;;;;;;;;;;1703602;82;20902;-73
2022/12/10 12:22:26;;;;;;;33.73;23.12;;;;;;;;;;1703829;82;21333;-72
2022/12/10 12:25:02;;;;;;;38.38;25.20;;;;;;;;;;1703562;82;20974;-72
2022/12/10 12:27:32;;;;;;;48.20;29.92;;;;;;;;;;1681787;82;21057;-72
2022/12/10 12:30:09;;;;;;;41.33;24.87;;;;;;;;;;1703735;82;20969;-73
2022/12/10 12:32:45;;;;;;;35.90;22.65;;;;;;;;;;1732801;79;21518;-72
2022/12/10 12:35:17;;;;;;;36.17;22.90;;;;;;;;;;1819371;79;21105;-73
2022/12/10 12:37:59;;;;;;;47.98;28.75;;;;;;;;;;1819617;79;20972;-72
2022/12/10 12:40:45;;;;;;;55.25;36.35;;;;;;;;;;1819478;78;20829;-72
2022/12/10 12:43:18;;;;;;;80.50;42.38;;;;;;;;;;1819418;78;20968;-73
2022/12/10 12:45:47;;;;;;;66.85;34.25;;;;;;;;;;1819543;78;20905;-74
2022/12/10 12:48:34;;;;;;;67.85;40.23;;;;;;;;;;1818904;79;21190;-73
2022/12/10 12:51:18;;;;;;;55.40;34.33;;;;;;;;;;1819415;78;21569;-73
2022/12/10 12:53:44;;;;;;;57.70;37.15;;;;;;;;;;1819196;79;21059;-73
2022/12/10 12:56:14;;;;;;;72.27;43.33;;;;;;;;;;1819220;78;20841;-72
2022/12/10 12:58:48;;;;;;;87.30;45.95;;;;;;;;;;1819199;78;21027;-73
2022/12/10 13:01:39;;;;;;;73.78;41.42;;;;;;;;;;1819401;79;21122;-75
2022/12/10 13:04:06;;;;;;;69.45;40.63;;;;;;;;;;1819226;79;20964;-73
2022/12/10 13:06:36;;;;;;;73.75;43.05;;;;;;;;;;1819341;78;20834;-74
2022/12/10 13:09:15;;;;;;;65.45;35.85;;;;;;;;;;1819325;79;20877;-72
2022/12/10 13:11:44;;;;;;;65.95;35.92;;;;;;;;;;1819569;78;21455;-74
2022/12/10 13:14:18;;;;;;;70.42;37.53;;;;;;;;;;1818912;79;21217;-75
2022/12/10 13:16:48;;;;;;;68.95;36.53;;;;;;;;;;1819165;78;20967;-75
2022/12/10 13:19:24;;;;;;;72.37;34.85;;;;;;;;;;1819253;79;20959;-74
2022/12/10 13:22:13;;;;;;;60.60;36.98;;;;;;;;;;1819190;79;20845;-75
2022/12/10 13:24:45;;;;;;;61.28;36.50;;;;;;;;;;1819420;78;20873;-76
2022/12/10 13:27:15;;;;;;;73.85;37.75;;;;;;;;;;1819294;79;21850;-74
2022/12/10 13:29:56;;;;;;;77.17;41.13;;;;;;;;;;1819281;78;21039;-74
2022/12/10 13:32:32;;;;;;;77.47;42.78;;;;;;;;;;1819575;78;20834;-74
2022/12/10 13:35:09;;;;;;;65.40;37.23;;;;;;;;;;1819234;79;20917;-75
2022/12/10 13:37:48;;;;;;;65.52;38.25;;;;;;;;;;1807428;79;20960;-77
2022/12/10 13:40:25;;;;;;;63.38;37.55;;;;;;;;;;1819257;79;21787;-74
2022/12/10 13:46:26;;;;;;;88.20;51.98;;;;;;;;;;1819361;79;20841;-74
2022/12/10 13:48:54;;;;;;;90.50;55.83;;;;;;;;;;1819269;79;20885;-75
2022/12/10 13:51:48;;;;;;;104.50;61.40;;;;;;;;;;1819546;79;20896;-74
2022/12/10 13:54:21;;;;;;;125.60;73.07;;;;;;;;;;1822425;78;21746;-73
2022/12/10 13:57:11;;;;;;;107.72;68.28;;;;;;;;;;1823317;79;20986;-72
2022/12/10 13:59:41;;;;;;;102.20;58.20;;;;;;;;;;1819994;79;21526;-75
2022/12/10 14:02:26;;;;;;;67.85;42.00;;;;;;;;;;1819395;78;20995;-74
2022/12/10 14:05:13;;;;;;;57.78;37.20;;;;;;;;;;1819284;79;20988;-72
2022/12/10 14:07:42;;;;;;;55.48;36.63;;;;;;;;;;1819286;79;21470;-75
2022/12/10 14:10:12;;;;;;;173.45;106.05;;;;;;;;;;1819220;79;20960;-73
2022/12/10 14:12:40;;;;;;;133.80;77.42;;;;;;;;;;1786028;79;20929;-75
2022/12/10 14:15:09;;;;;;;110.08;57.43;;;;;;;;;;1819744;78;21391;-73
2022/12/10 14:17:38;;;;;;;104.10;59.77;;;;;;;;;;1819244;78;21483;-75
2022/12/10 14:20:07;;;;;;;118.28;65.92;;;;;;;;;;1813201;77;21137;-77
2022/12/10 14:22:35;;;;;;;89.72;51.42;;;;;;;;;;1795506;78;20913;-74
2022/12/10 14:25:06;;;;;;;98.45;57.55;;;;;;;;;;1805521;78;20883;-77
2022/12/10 14:27:32;;;;;;;96.47;55.25;;;;;;;;;;1788074;79;20890;-77
2022/12/10 14:30:03;;;;;;;73.90;44.70;;;;;;;;;;1787931;79;21527;-75
2022/12/10 14:32:35;;;;;;;85.40;47.73;;;;;;;;;;1787762;79;21813;-74
2022/12/10 14:35:05;;;;;;;79.50;45.08;;;;;;;;;;1754123;79;20890;-76
2022/12/10 14:37:34;;;;;;;84.85;55.05;;;;;;;;;;1793794;78;20928;-75
2022/12/10 14:40:00;;;;;;;96.17;57.48;;;;;;;;;;1786994;80;20845;-75
2022/12/10 14:42:27;;;;;;;112.08;68.35;;;;;;;;;;1786897;80;21514;-76
2022/12/10 14:44:59;;;;;;;92.85;53.50;;;;;;;;;;1786887;80;21270;-76
2022/12/10 14:47:26;;;;;;;81.78;43.70;;;;;;;;;;1787281;80;20968;-74